Station Historical Data
Daily Summary for March 1, 2017 Units:  English    Metric   Both
« Previous Day
Next Day »
Daily Weekly Monthly Yearly Custom
  High: Low: Average:
Temperature: 60.2 °F 36.2 °F 52.5 °F
Dew Point: 53.7 °F 28.7 °F 46.3 °F
Humidity: 93% 69% 80%
Wind Speed: 22.0mph 1.0mph 9.2mph
Wind Gust: 38.0mph - -
Wind- - SW
Pressure: 29.72 in 29.29 in -
Precipitation: 0.00 in    
Historical Graphs
 
 
Tabular Data for March 1, 2017
Time Temperature Dew Point Pressure Wind Wind Speed Wind Gust Humidity Rainfall Rate (Hourly)
00:04 57.7 °F 50.2 °F 29.72 in SW 5.0 mph 11.0 mph 76% 0.00 in
00:09 57.6 °F 50.1 °F 29.71 in SSW 10.0 mph 15.0 mph 76% 0.00 in
00:14 57.6 °F 50.1 °F 29.70 in South 9.0 mph 15.0 mph 76% 0.00 in
00:19 57.7 °F 50.2 °F 29.69 in West 8.0 mph 15.0 mph 76% 0.00 in
00:24 57.6 °F 50.1 °F 29.69 in South 4.0 mph 16.0 mph 76% 0.00 in
00:29 57.4 °F 49.9 °F 29.69 in SW 6.0 mph 10.0 mph 76% 0.00 in
00:34 57.4 °F 50.2 °F 29.68 in South 5.0 mph 13.0 mph 77% 0.00 in
00:39 57.5 °F 50.3 °F 29.69 in SSW 7.0 mph 17.0 mph 77% 0.00 in
00:44 57.6 °F 50.4 °F 29.69 in SSW 7.0 mph 19.0 mph 77% 0.00 in
00:49 57.8 °F 50.6 °F 29.69 in SSW 8.0 mph 22.0 mph 77% 0.00 in
00:54 57.8 °F 50.6 °F 29.68 in SSW 8.0 mph 22.0 mph 77% 0.00 in
00:59 57.8 °F 50.6 °F 29.67 in SSW 7.0 mph 14.0 mph 77% 0.00 in
01:04 57.8 °F 50.6 °F 29.67 in SSW 7.0 mph 13.0 mph 77% 0.00 in
01:09 57.9 °F 50.7 °F 29.67 in SSW 7.0 mph 17.0 mph 77% 0.00 in
01:14 57.7 °F 50.9 °F 29.66 in SSW 7.0 mph 17.0 mph 78% 0.00 in
01:19 57.6 °F 51.1 °F 29.66 in South 5.0 mph 10.0 mph 79% 0.00 in
01:24 57.5 °F 51.0 °F 29.65 in SW 10.0 mph 16.0 mph 79% 0.00 in
01:29 57.4 °F 50.9 °F 29.65 in SSW 7.0 mph 16.0 mph 79% 0.00 in
01:34 57.5 °F 51.0 °F 29.65 in SSW 9.0 mph 15.0 mph 79% 0.00 in
01:39 57.5 °F 51.0 °F 29.64 in SSW 5.0 mph 12.0 mph 79% 0.00 in
01:44 57.6 °F 51.1 °F 29.64 in SSW 2.0 mph 12.0 mph 79% 0.00 in
01:49 57.7 °F 51.2 °F 29.63 in South 6.0 mph 12.0 mph 79% 0.00 in
01:54 57.7 °F 51.2 °F 29.62 in South 7.0 mph 15.0 mph 79% 0.00 in
01:59 57.6 °F 51.1 °F 29.62 in South 7.0 mph 15.0 mph 79% 0.00 in
02:04 57.4 °F 51.3 °F 29.61 in South 5.0 mph 10.0 mph 80% 0.00 in
02:09 57.2 °F 51.4 °F 29.60 in South 5.0 mph 12.0 mph 81% 0.00 in
02:14 57.3 °F 51.5 °F 29.60 in South 11.0 mph 13.0 mph 81% 0.00 in
02:19 57.6 °F 51.8 °F 29.60 in South 5.0 mph 16.0 mph 81% 0.00 in
02:24 57.6 °F 52.1 °F 29.59 in South 13.0 mph 13.0 mph 82% 0.03 in
02:29 57.7 °F 52.6 °F 29.59 in South 8.0 mph 20.0 mph 83% 0.06 in
02:34 57.4 °F 52.6 °F 29.58 in South 12.0 mph 13.0 mph 84% 0.08 in
02:39 57.4 °F 52.6 °F 29.58 in SW 6.0 mph 14.0 mph 84% 0.08 in
02:44 57.4 °F 52.6 °F 29.57 in SW 12.0 mph 15.0 mph 84% 0.08 in
02:49 57.4 °F 52.6 °F 29.57 in SW 4.0 mph 14.0 mph 84% 0.08 in
02:54 57.3 °F 52.5 °F 29.57 in SSW 6.0 mph 14.0 mph 84% 0.08 in
02:59 57.4 °F 52.6 °F 29.56 in SSW 6.0 mph 13.0 mph 84% 0.08 in
03:04 57.6 °F 52.8 °F 29.56 in SSW 7.0 mph 15.0 mph 84% 0.08 in
03:09 57.7 °F 52.6 °F 29.56 in SSW 7.0 mph 15.0 mph 83% 0.09 in
03:14 57.6 °F 52.8 °F 29.56 in South 6.0 mph 17.0 mph 84% 0.13 in
03:19 57.4 °F 52.9 °F 29.55 in SW 4.0 mph 14.0 mph 85% 0.14 in
03:24 57.2 °F 53.0 °F 29.55 in SSW 6.0 mph 14.0 mph 86% 0.12 in
03:29 57.1 °F 53.0 °F 29.54 in SSW 6.0 mph 15.0 mph 86% 0.11 in
03:34 57.2 °F 53.0 °F 29.53 in SSW 10.0 mph 15.0 mph 86% 0.09 in
03:39 57.1 °F 53.3 °F 29.53 in SSW 6.0 mph 14.0 mph 87% 0.10 in
03:44 57.0 °F 53.2 °F 29.52 in South 7.0 mph 12.0 mph 87% 0.10 in
03:49 57.0 °F 53.2 °F 29.52 in South 3.0 mph 16.0 mph 87% 0.11 in
03:54 57.0 °F 53.2 °F 29.51 in SW 5.0 mph 14.0 mph 87% 0.11 in
03:59 57.2 °F 53.4 °F 29.51 in South 6.0 mph 14.0 mph 87% 0.11 in
04:04 57.3 °F 53.5 °F 29.50 in SSW 7.0 mph 14.0 mph 87% 0.11 in
04:09 57.5 °F 53.3 °F 29.49 in South 7.0 mph 15.0 mph 86% 0.10 in
04:14 57.7 °F 53.5 °F 29.49 in SSW 7.0 mph 14.0 mph 86% 0.06 in
04:19 57.8 °F 53.6 °F 29.49 in South 7.0 mph 15.0 mph 86% 0.05 in
04:24 58.0 °F 53.5 °F 29.49 in SSW 7.0 mph 15.0 mph 85% 0.04 in
04:29 58.2 °F 53.7 °F 29.48 in SSE 7.0 mph 13.0 mph 85% 0.02 in
04:34 58.4 °F 53.6 °F 29.47 in SSW 6.0 mph 15.0 mph 84% 0.02 in
04:39 58.7 °F 53.5 °F 29.47 in SSW 6.0 mph 18.0 mph 83% 0.01 in
04:44 59.2 °F 53.7 °F 29.47 in SW 5.0 mph 16.0 mph 82% 0.01 in
04:49 59.5 °F 53.3 °F 29.47 in SW 6.0 mph 13.0 mph 80% 0.00 in
04:54 59.9 °F 53.4 °F 29.47 in SW 5.0 mph 12.0 mph 79% 0.00 in
04:59 59.9 °F 53.4 °F 29.47 in South 7.0 mph 13.0 mph 79% 0.00 in
05:04 60.0 °F 53.5 °F 29.46 in SW 3.0 mph 12.0 mph 79% 0.00 in
05:09 60.2 °F 53.7 °F 29.46 in SSW 6.0 mph 14.0 mph 79% 0.00 in
05:14 60.0 °F 53.5 °F 29.46 in SSW 6.0 mph 14.0 mph 79% 0.00 in
05:19 60.0 °F 53.5 °F 29.47 in SSW 5.0 mph 13.0 mph 79% 0.00 in
05:24 60.1 °F 53.6 °F 29.46 in SSW 6.0 mph 14.0 mph 79% 0.00 in
05:29 60.0 °F 53.5 °F 29.46 in SSW 6.0 mph 14.0 mph 79% 0.00 in
05:34 60.0 °F 53.5 °F 29.46 in SSW 6.0 mph 14.0 mph 79% 0.00 in
05:39 59.9 °F 53.4 °F 29.46 in SW 3.0 mph 13.0 mph 79% 0.00 in
05:44 59.7 °F 53.2 °F 29.46 in SW 3.0 mph 10.0 mph 79% 0.00 in
05:49 59.6 °F 53.1 °F 29.46 in SW 4.0 mph 7.0 mph 79% 0.00 in
05:54 59.6 °F 53.4 °F 29.46 in WSW 6.0 mph 9.0 mph 80% 0.00 in
05:59 59.6 °F 53.4 °F 29.46 in SW 5.0 mph 9.0 mph 80% 0.00 in
06:04 59.5 °F 53.3 °F 29.45 in SSW 2.0 mph 9.0 mph 80% 0.00 in
06:09 59.5 °F 53.3 °F 29.45 in West 5.0 mph 11.0 mph 80% 0.00 in
06:14 58.8 °F 52.3 °F 29.45 in WSW 4.0 mph 11.0 mph 79% 0.00 in
06:19 57.5 °F 51.0 °F 29.45 in West 3.0 mph 7.0 mph 79% 0.00 in
06:24 56.6 °F 50.5 °F 29.45 in West 3.0 mph 7.0 mph 80% 0.00 in
06:29 55.4 °F 49.3 °F 29.45 in West 4.0 mph 7.0 mph 80% 0.00 in
06:34 54.7 °F 49.0 °F 29.45 in West 4.0 mph 7.0 mph 81% 0.00 in
06:44 54.0 °F 49.0 °F 29.45 in WSW 4.0 mph 6.0 mph 83% 0.00 in
06:49 53.9 °F 48.9 °F 29.45 in WSW 3.0 mph 6.0 mph 83% 0.00 in
06:54 53.7 °F 49.0 °F 29.45 in WSW 2.0 mph 4.0 mph 84% 0.00 in
06:59 53.7 °F 49.0 °F 29.45 in West 1.0 mph 4.0 mph 84% 0.00 in
07:04 53.6 °F 48.9 °F 29.45 in WSW 3.0 mph 4.0 mph 84% 0.00 in
07:09 53.5 °F 48.8 °F 29.44 in WSW 1.0 mph 4.0 mph 84% 0.00 in
07:14 53.4 °F 49.0 °F 29.44 in WSW 4.0 mph 4.0 mph 85% 0.00 in
07:19 53.2 °F 48.8 °F 29.44 in WSW 2.0 mph 6.0 mph 85% 0.00 in
07:24 53.2 °F 48.8 °F 29.43 in SW 3.0 mph 8.0 mph 85% 0.01 in
07:29 53.2 °F 49.1 °F 29.43 in SW 4.0 mph 8.0 mph 86% 0.01 in
07:34 53.0 °F 48.9 °F 29.45 in SW 3.0 mph 8.0 mph 86% 0.02 in
07:39 52.6 °F 48.5 °F 29.47 in WSW 7.0 mph 19.0 mph 86% 0.05 in
07:44 51.8 °F 48.1 °F 29.47 in WSW 5.0 mph 14.0 mph 87% 0.09 in
07:49 51.5 °F 48.1 °F 29.47 in WSW 4.0 mph 8.0 mph 88% 0.12 in
07:54 51.4 °F 48.3 °F 29.47 in WSW 5.0 mph 9.0 mph 89% 0.13 in
07:59 51.1 °F 48.0 °F 29.46 in SW 2.0 mph 5.0 mph 89% 0.14 in
08:04 50.7 °F 47.6 °F 29.46 in South 7.0 mph 10.0 mph 89% 0.14 in
08:09 49.4 °F 46.3 °F 29.45 in SSE 5.0 mph 9.0 mph 89% 0.15 in
08:14 48.1 °F 45.0 °F 29.43 in South 5.0 mph 9.0 mph 89% 0.15 in
08:19 47.2 °F 44.4 °F 29.43 in SSW 5.0 mph 13.0 mph 90% 0.15 in
08:24 47.0 °F 44.5 °F 29.41 in SSW 5.0 mph 9.0 mph 91% 0.14 in
08:29 47.6 °F 45.4 °F 29.42 in South 5.0 mph 9.0 mph 92% 0.14 in
08:34 47.9 °F 45.7 °F 29.42 in SSW 5.0 mph 9.0 mph 92% 0.13 in
08:39 48.3 °F 46.1 °F 29.41 in SSW 6.0 mph 12.0 mph 92% 0.10 in
08:44 49.1 °F 47.2 °F 29.40 in SSW 5.0 mph 12.0 mph 93% 0.06 in
08:49 49.9 °F 48.0 °F 29.39 in SSW 5.0 mph 9.0 mph 93% 0.03 in
08:54 50.5 °F 48.6 °F 29.38 in SSW 4.0 mph 11.0 mph 93% 0.02 in
08:59 51.6 °F 49.6 °F 29.36 in SSW 5.0 mph 11.0 mph 93% 0.01 in
09:04 52.2 °F 50.2 °F 29.35 in South 7.0 mph 10.0 mph 93% 0.01 in
09:09 52.6 °F 50.6 °F 29.33 in South 6.0 mph 12.0 mph 93% 0.00 in
09:14 52.9 °F 50.6 °F 29.34 in SSE 6.0 mph 13.0 mph 92% 0.00 in
09:19 53.1 °F 50.8 °F 29.33 in SSW 6.0 mph 9.0 mph 92% 0.00 in
09:24 53.4 °F 50.8 °F 29.34 in SSE 5.0 mph 14.0 mph 91% 0.00 in
09:29 54.6 °F 51.7 °F 29.36 in WSW 5.0 mph 9.0 mph 90% 0.00 in
09:34 55.2 °F 51.4 °F 29.36 in SW 5.0 mph 9.0 mph 87% 0.00 in
09:39 56.0 °F 51.9 °F 29.36 in SW 5.0 mph 11.0 mph 86% 0.00 in
09:44 56.7 °F 51.9 °F 29.36 in SW 6.0 mph 11.0 mph 84% 0.00 in
09:49 57.6 °F 52.1 °F 29.36 in SW 6.0 mph 14.0 mph 82% 0.00 in
09:54 57.9 °F 52.1 °F 29.36 in SW 6.0 mph 14.0 mph 81% 0.00 in
09:59 58.7 °F 52.5 °F 29.37 in SW 10.0 mph 13.0 mph 80% 0.00 in
10:04 58.6 °F 52.1 °F 29.36 in SSW 6.0 mph 17.0 mph 79% 0.00 in
10:09 58.4 °F 51.9 °F 29.36 in SW 7.0 mph 17.0 mph 79% 0.00 in
10:14 58.3 °F 51.5 °F 29.36 in SW 7.0 mph 16.0 mph 78% 0.00 in
10:19 57.8 °F 51.0 °F 29.36 in SW 8.0 mph 13.0 mph 78% 0.00 in
10:24 57.9 °F 51.4 °F 29.36 in SW 7.0 mph 15.0 mph 79% 0.00 in
10:29 57.8 °F 51.3 °F 29.35 in SW 7.0 mph 15.0 mph 79% 0.00 in
10:34 58.1 °F 51.3 °F 29.35 in SW 7.0 mph 15.0 mph 78% 0.00 in
10:39 58.5 °F 51.3 °F 29.35 in SW 7.0 mph 15.0 mph 77% 0.00 in
10:44 58.6 °F 51.4 °F 29.35 in South 5.0 mph 13.0 mph 77% 0.00 in
10:49 59.0 °F 51.8 °F 29.35 in West 5.0 mph 13.0 mph 77% 0.00 in
10:54 59.0 °F 51.8 °F 29.35 in West 7.0 mph 12.0 mph 77% 0.00 in
10:59 58.4 °F 51.2 °F 29.35 in SW 6.0 mph 14.0 mph 77% 0.00 in
11:04 58.0 °F 50.8 °F 29.35 in WSW 12.0 mph 13.0 mph 77% 0.00 in
11:09 57.6 °F 50.8 °F 29.35 in SW 13.0 mph 17.0 mph 78% 0.00 in
11:14 57.3 °F 49.8 °F 29.35 in WSW 8.0 mph 17.0 mph 76% 0.00 in
11:19 57.4 °F 49.5 °F 29.36 in SW 8.0 mph 15.0 mph 75% 0.00 in
11:24 57.5 °F 49.3 °F 29.36 in WSW 8.0 mph 19.0 mph 74% 0.00 in
11:29 57.1 °F 48.9 °F 29.36 in WSW 8.0 mph 19.0 mph 74% 0.00 in
11:34 56.9 °F 48.7 °F 29.36 in WSW 7.0 mph 14.0 mph 74% 0.00 in
11:39 56.0 °F 47.8 °F 29.36 in WSW 5.0 mph 17.0 mph 74% 0.00 in
11:44 55.3 °F 47.5 °F 29.36 in WSW 8.0 mph 17.0 mph 75% 0.00 in
11:49 55.2 °F 47.4 °F 29.36 in SW 6.0 mph 13.0 mph 75% 0.00 in
11:54 55.1 °F 47.3 °F 29.37 in West 10.0 mph 12.0 mph 75% 0.00 in
11:59 54.4 °F 46.6 °F 29.37 in SSW 8.0 mph 17.0 mph 75% 0.00 in
12:04 53.7 °F 46.3 °F 29.36 in South 5.0 mph 11.0 mph 76% 0.00 in
12:09 53.6 °F 46.6 °F 29.35 in WSW 4.0 mph 12.0 mph 77% 0.00 in
12:14 53.5 °F 46.5 °F 29.35 in SW 7.0 mph 13.0 mph 77% 0.00 in
12:19 53.7 °F 46.7 °F 29.34 in SW 6.0 mph 13.0 mph 77% 0.00 in
12:24 54.2 °F 46.8 °F 29.34 in SW 6.0 mph 13.0 mph 76% 0.00 in
12:29 54.8 °F 47.0 °F 29.34 in SW 7.0 mph 14.0 mph 75% 0.00 in
12:34 55.5 °F 47.7 °F 29.34 in SW 7.0 mph 15.0 mph 75% 0.00 in
12:39 56.9 °F 48.3 °F 29.33 in SW 8.0 mph 21.0 mph 73% 0.00 in
12:44 57.9 °F 48.9 °F 29.32 in SW 8.0 mph 21.0 mph 72% 0.00 in
12:49 58.7 °F 48.9 °F 29.31 in SSW 7.0 mph 19.0 mph 70% 0.00 in
12:54 59.2 °F 49.4 °F 29.30 in WSW 9.0 mph 17.0 mph 70% 0.00 in
12:59 59.5 °F 49.3 °F 29.32 in SW 9.0 mph 16.0 mph 69% 0.00 in
13:04 59.6 °F 49.4 °F 29.33 in SW 10.0 mph 16.0 mph 69% 0.00 in
13:09 59.4 °F 49.2 °F 29.33 in SW 6.0 mph 18.0 mph 69% 0.00 in
13:14 59.0 °F 48.8 °F 29.33 in SW 10.0 mph 20.0 mph 69% 0.00 in
13:19 59.0 °F 48.8 °F 29.33 in West 15.0 mph 18.0 mph 69% 0.00 in
13:24 59.0 °F 48.8 °F 29.33 in SW 9.0 mph 18.0 mph 69% 0.00 in
13:29 58.8 °F 49.0 °F 29.33 in SW 8.0 mph 17.0 mph 70% 0.00 in
13:34 58.4 °F 48.7 °F 29.33 in SW 9.0 mph 17.0 mph 70% 0.00 in
13:39 58.2 °F 48.8 °F 29.33 in SW 7.0 mph 18.0 mph 71% 0.00 in
13:44 57.8 °F 48.8 °F 29.33 in WSW 5.0 mph 15.0 mph 72% 0.00 in
13:49 57.5 °F 48.9 °F 29.32 in West 7.0 mph 11.0 mph 73% 0.00 in
13:54 57.7 °F 49.1 °F 29.32 in WSW 7.0 mph 13.0 mph 73% 0.00 in
13:59 57.5 °F 48.9 °F 29.32 in SW 8.0 mph 21.0 mph 73% 0.00 in
14:04 57.2 °F 49.0 °F 29.32 in SW 9.0 mph 21.0 mph 74% 0.00 in
14:09 58.1 °F 49.9 °F 29.32 in WSW 9.0 mph 19.0 mph 74% 0.00 in
14:14 58.4 °F 49.8 °F 29.32 in SSW 8.0 mph 16.0 mph 73% 0.00 in
14:19 58.1 °F 49.5 °F 29.32 in WSW 7.0 mph 22.0 mph 73% 0.00 in
14:24 58.0 °F 49.4 °F 29.32 in SSW 21.0 mph 21.0 mph 73% 0.00 in
14:29 58.1 °F 49.5 °F 29.32 in WSW 11.0 mph 21.0 mph 73% 0.00 in
14:34 57.3 °F 49.1 °F 29.32 in WSW 11.0 mph 21.0 mph 74% 0.00 in
14:39 56.5 °F 48.7 °F 29.31 in SSW 9.0 mph 19.0 mph 75% 0.00 in
14:44 55.7 °F 47.9 °F 29.31 in SW 8.0 mph 21.0 mph 75% 0.00 in
14:49 55.2 °F 47.8 °F 29.31 in SW 6.0 mph 16.0 mph 76% 0.00 in
14:54 54.7 °F 47.3 °F 29.31 in WSW 14.0 mph 18.0 mph 76% 0.00 in
14:59 54.6 °F 47.2 °F 29.31 in SW 11.0 mph 18.0 mph 76% 0.00 in
15:04 54.7 °F 47.3 °F 29.31 in WSW 10.0 mph 20.0 mph 76% 0.00 in
15:09 54.9 °F 47.5 °F 29.31 in SW 10.0 mph 20.0 mph 76% 0.00 in
15:14 55.5 °F 47.3 °F 29.31 in SW 11.0 mph 27.0 mph 74% 0.00 in
15:19 56.1 °F 47.2 °F 29.31 in WSW 13.0 mph 29.0 mph 72% 0.00 in
15:24 56.2 °F 46.9 °F 29.31 in WSW 12.0 mph 25.0 mph 71% 0.00 in
15:29 56.2 °F 46.9 °F 29.31 in WSW 16.0 mph 27.0 mph 71% 0.00 in
15:34 56.3 °F 47.0 °F 29.31 in SW 18.0 mph 29.0 mph 71% 0.00 in
15:39 56.3 °F 47.4 °F 29.31 in West 15.0 mph 24.0 mph 72% 0.00 in
15:44 56.4 °F 47.5 °F 29.30 in West 15.0 mph 24.0 mph 72% 0.00 in
15:49 56.5 °F 47.2 °F 29.29 in West 11.0 mph 27.0 mph 71% 0.00 in
15:54 56.7 °F 47.4 °F 29.29 in WSW 11.0 mph 23.0 mph 71% 0.00 in
15:59 56.9 °F 47.6 °F 29.29 in West 6.0 mph 24.0 mph 71% 0.00 in
16:04 56.7 °F 47.4 °F 29.29 in WSW 12.0 mph 24.0 mph 71% 0.00 in
16:09 56.0 °F 47.1 °F 29.29 in WSW 12.0 mph 23.0 mph 72% 0.00 in
16:14 55.7 °F 47.2 °F 29.30 in WSW 12.0 mph 22.0 mph 73% 0.00 in
16:19 55.3 °F 47.2 °F 29.30 in WSW 12.0 mph 23.0 mph 74% 0.00 in
16:24 55.1 °F 47.3 °F 29.30 in WSW 12.0 mph 26.0 mph 75% 0.00 in
16:29 54.9 °F 47.1 °F 29.30 in WSW 12.0 mph 26.0 mph 75% 0.00 in
16:34 54.9 °F 47.1 °F 29.29 in West 10.0 mph 25.0 mph 75% 0.00 in
16:39 54.8 °F 47.0 °F 29.29 in WSW 14.0 mph 30.0 mph 75% 0.00 in
16:44 54.1 °F 46.3 °F 29.29 in WSW 14.0 mph 30.0 mph 75% 0.00 in
16:49 53.4 °F 46.0 °F 29.29 in West 13.0 mph 24.0 mph 76% 0.00 in
16:54 52.9 °F 46.9 °F 29.30 in WSW 16.0 mph 22.0 mph 80% 0.00 in
16:59 52.7 °F 47.4 °F 29.29 in SW 8.0 mph 20.0 mph 82% 0.01 in
17:04 52.5 °F 47.2 °F 29.30 in WSW 13.0 mph 24.0 mph 82% 0.01 in
17:09 52.3 °F 47.3 °F 29.30 in West 14.0 mph 25.0 mph 83% 0.01 in
17:14 52.2 °F 46.9 °F 29.30 in WSW 14.0 mph 26.0 mph 82% 0.01 in
17:19 52.2 °F 46.9 °F 29.29 in SW 15.0 mph 26.0 mph 82% 0.01 in
17:24 52.1 °F 46.8 °F 29.29 in SW 13.0 mph 25.0 mph 82% 0.01 in
17:29 52.1 °F 46.4 °F 29.30 in WSW 13.0 mph 30.0 mph 81% 0.01 in
17:34 52.1 °F 46.4 °F 29.29 in WSW 14.0 mph 30.0 mph 81% 0.01 in
17:39 52.1 °F 46.1 °F 29.30 in WSW 14.0 mph 27.0 mph 80% 0.01 in
17:44 52.1 °F 45.8 °F 29.30 in WSW 11.0 mph 26.0 mph 79% 0.01 in
17:49 52.0 °F 45.7 °F 29.30 in WSW 15.0 mph 32.0 mph 79% 0.01 in
17:54 51.4 °F 45.1 °F 29.30 in West 6.0 mph 26.0 mph 79% 0.01 in
17:59 51.0 °F 45.0 °F 29.30 in WSW 8.0 mph 22.0 mph 80% 0.00 in
18:04 51.1 °F 44.8 °F 29.31 in SW 14.0 mph 27.0 mph 79% 0.00 in
18:09 50.7 °F 44.4 °F 29.31 in West 16.0 mph 36.0 mph 79% 0.00 in
18:14 50.2 °F 44.3 °F 29.31 in West 22.0 mph 34.0 mph 80% 0.00 in
18:19 49.8 °F 43.9 °F 29.31 in SW 15.0 mph 34.0 mph 80% 0.00 in
18:24 49.3 °F 43.4 °F 29.32 in SW 17.0 mph 33.0 mph 80% 0.00 in
18:29 48.8 °F 42.9 °F 29.32 in SW 17.0 mph 35.0 mph 80% 0.00 in
18:34 48.4 °F 42.5 °F 29.32 in SW 16.0 mph 35.0 mph 80% 0.00 in
18:39 47.8 °F 41.9 °F 29.32 in SW 16.0 mph 30.0 mph 80% 0.00 in
18:44 47.4 °F 41.9 °F 29.33 in WSW 14.0 mph 27.0 mph 81% 0.00 in
18:49 47.3 °F 41.8 °F 29.33 in WSW 14.0 mph 27.0 mph 81% 0.00 in
18:54 47.1 °F 41.2 °F 29.34 in SSW 13.0 mph 31.0 mph 80% 0.00 in
18:59 46.6 °F 41.1 °F 29.34 in WSW 12.0 mph 33.0 mph 81% 0.00 in
19:04 46.0 °F 40.5 °F 29.33 in WSW 16.0 mph 34.0 mph 81% 0.00 in
19:09 45.5 °F 40.0 °F 29.34 in WSW 13.0 mph 27.0 mph 81% 0.00 in
19:14 45.0 °F 39.5 °F 29.35 in SSW 16.0 mph 31.0 mph 81% 0.00 in
19:19 44.6 °F 38.8 °F 29.35 in SW 9.0 mph 37.0 mph 80% 0.00 in
19:24 44.2 °F 38.7 °F 29.35 in WSW 16.0 mph 37.0 mph 81% 0.00 in
19:29 43.8 °F 38.3 °F 29.36 in WSW 15.0 mph 30.0 mph 81% 0.00 in
19:34 43.6 °F 38.2 °F 29.37 in WSW 15.0 mph 27.0 mph 81% 0.00 in
19:39 43.3 °F 37.9 °F 29.37 in WSW 16.0 mph 26.0 mph 81% 0.00 in
19:44 43.1 °F 37.7 °F 29.38 in WSW 16.0 mph 25.0 mph 81% 0.00 in
19:49 42.8 °F 37.4 °F 29.38 in SW 15.0 mph 27.0 mph 81% 0.00 in
19:54 42.7 °F 37.3 °F 29.39 in SW 16.0 mph 27.0 mph 81% 0.00 in
19:59 42.5 °F 37.1 °F 29.39 in SW 15.0 mph 26.0 mph 81% 0.00 in
20:04 42.1 °F 36.7 °F 29.39 in SW 15.0 mph 28.0 mph 81% 0.00 in
20:09 41.9 °F 36.5 °F 29.40 in SW 20.0 mph 25.0 mph 81% 0.00 in
20:14 41.8 °F 36.7 °F 29.40 in SW 22.0 mph 24.0 mph 82% 0.00 in
20:19 41.8 °F 36.7 °F 29.40 in SW 17.0 mph 24.0 mph 82% 0.00 in
20:24 41.7 °F 36.3 °F 29.41 in WSW 14.0 mph 28.0 mph 81% 0.00 in
20:29 41.5 °F 36.1 °F 29.41 in SW 14.0 mph 28.0 mph 81% 0.00 in
20:34 41.4 °F 36.0 °F 29.41 in SW 13.0 mph 26.0 mph 81% 0.00 in
20:39 41.4 °F 36.0 °F 29.41 in SW 22.0 mph 29.0 mph 81% 0.00 in
20:44 41.3 °F 35.6 °F 29.41 in SSW 10.0 mph 29.0 mph 80% 0.00 in
20:49 41.4 °F 35.4 °F 29.41 in SW 19.0 mph 38.0 mph 79% 0.00 in
20:54 41.5 °F 35.5 °F 29.41 in SSE 10.0 mph 28.0 mph 79% 0.00 in
20:59 41.5 °F 35.2 °F 29.42 in WSW 17.0 mph 28.0 mph 78% 0.00 in
21:04 41.4 °F 35.1 °F 29.42 in WSW 16.0 mph 33.0 mph 78% 0.00 in
21:09 41.2 °F 34.9 °F 29.43 in WSW 16.0 mph 33.0 mph 78% 0.00 in
21:14 41.0 °F 35.0 °F 29.43 in WSW 15.0 mph 28.0 mph 79% 0.00 in
21:19 40.7 °F 34.7 °F 29.43 in WSW 14.0 mph 28.0 mph 79% 0.00 in
21:24 40.6 °F 34.9 °F 29.43 in SW 14.0 mph 27.0 mph 80% 0.00 in
21:29 40.4 °F 34.7 °F 29.43 in WSW 15.0 mph 28.0 mph 80% 0.00 in
21:34 40.1 °F 34.4 °F 29.44 in WNW 14.0 mph 19.0 mph 80% 0.00 in
21:39 39.8 °F 34.1 °F 29.44 in SW 9.0 mph 28.0 mph 80% 0.00 in
21:44 39.6 °F 33.9 °F 29.43 in SW 22.0 mph 29.0 mph 80% 0.00 in
21:49 39.4 °F 33.7 °F 29.43 in WSW 15.0 mph 29.0 mph 80% 0.00 in
21:54 39.2 °F 33.5 °F 29.44 in SW 14.0 mph 23.0 mph 80% 0.00 in
21:59 39.0 °F 33.7 °F 29.44 in SW 12.0 mph 23.0 mph 81% 0.00 in
22:04 38.8 °F 33.5 °F 29.44 in SW 12.0 mph 26.0 mph 81% 0.00 in
22:09 38.8 °F 33.5 °F 29.44 in WSW 12.0 mph 26.0 mph 81% 0.00 in
22:14 38.6 °F 33.3 °F 29.44 in WSW 13.0 mph 24.0 mph 81% 0.00 in
22:19 38.6 °F 33.3 °F 29.44 in WSW 13.0 mph 24.0 mph 81% 0.00 in
22:24 38.6 °F 33.3 °F 29.44 in WSW 12.0 mph 23.0 mph 81% 0.00 in
22:29 38.6 °F 33.3 °F 29.44 in SW 22.0 mph 26.0 mph 81% 0.00 in
22:34 38.5 °F 32.9 °F 29.45 in WSW 13.0 mph 29.0 mph 80% 0.00 in
22:39 38.5 °F 32.9 °F 29.45 in SSW 9.0 mph 23.0 mph 80% 0.00 in
22:44 38.4 °F 32.8 °F 29.45 in SW 11.0 mph 24.0 mph 80% 0.00 in
22:49 38.3 °F 32.7 °F 29.45 in WSW 11.0 mph 26.0 mph 80% 0.00 in
22:54 38.2 °F 32.6 °F 29.45 in WSW 15.0 mph 27.0 mph 80% 0.00 in
22:59 38.1 °F 32.2 °F 29.45 in SSW 15.0 mph 29.0 mph 79% 0.00 in
23:04 38.1 °F 32.2 °F 29.46 in SW 14.0 mph 29.0 mph 79% 0.00 in
23:09 38.0 °F 32.1 °F 29.46 in WSW 15.0 mph 28.0 mph 79% 0.00 in
23:14 38.0 °F 32.1 °F 29.47 in West 8.0 mph 22.0 mph 79% 0.00 in
23:19 37.9 °F 32.0 °F 29.46 in WSW 14.0 mph 24.0 mph 79% 0.00 in
23:24 37.8 °F 31.9 °F 29.47 in WSW 8.0 mph 22.0 mph 79% 0.00 in
23:29 37.7 °F 31.8 °F 29.47 in SW 8.0 mph 24.0 mph 79% 0.00 in
23:34 37.5 °F 31.6 °F 29.47 in West 12.0 mph 27.0 mph 79% 0.00 in
23:39 37.4 °F 31.2 °F 29.48 in WSW 13.0 mph 27.0 mph 78% 0.00 in
23:44 37.2 °F 30.3 °F 29.49 in WSW 12.0 mph 25.0 mph 76% 0.00 in
23:49 36.9 °F 29.7 °F 29.49 in WSW 12.0 mph 26.0 mph 75% 0.00 in
23:54 36.5 °F 29.0 °F 29.49 in West 9.0 mph 30.0 mph 74% 0.00 in
23:59 36.2 °F 28.7 °F 29.50 in WSW 12.0 mph 25.0 mph 74% 0.00 in
Buffalo, New York, USA
Compliments of Weather Underground - 2.5 mb